createdAt,value
2022-11-09T00:01:04.583Z,13.24
2022-11-09T00:03:32.496Z,12.89
2022-11-09T00:06:00.489Z,13.04
2022-11-09T00:08:28.459Z,13.01
2022-11-09T00:10:56.046Z,13.09
2022-11-09T00:13:23.605Z,12.90
2022-11-09T00:15:50.969Z,13.04
2022-11-09T00:18:18.530Z,13.05
2022-11-09T00:20:48.112Z,13.07
2022-11-09T00:23:16.691Z,13.08
2022-11-09T00:25:44.813Z,12.97
2022-11-09T00:28:12.108Z,13.00
2022-11-09T00:30:40.029Z,12.85
2022-11-09T00:33:08.739Z,13.02
2022-11-09T00:35:38.507Z,12.88
2022-11-09T00:38:05.858Z,13.01
2022-11-09T00:40:33.566Z,12.74
2022-11-09T00:43:00.858Z,12.90
2022-11-09T00:45:28.162Z,13.01
2022-11-09T00:47:55.878Z,13.10
2022-11-09T00:50:23.180Z,12.90
2022-11-09T00:52:50.802Z,12.93
2022-11-09T00:55:21.011Z,12.93
2022-11-09T00:57:51.987Z,13.02
2022-11-09T01:00:21.577Z,12.99
2022-11-09T01:02:51.852Z,13.04
2022-11-09T01:05:19.699Z,13.08
2022-11-09T01:07:49.401Z,13.12
2022-11-09T01:10:16.740Z,13.07
2022-11-09T01:12:44.142Z,12.95
2022-11-09T01:15:11.749Z,13.03
2022-11-09T01:17:39.091Z,13.02
2022-11-09T01:20:06.812Z,13.10
2022-11-09T01:22:35.831Z,12.90
2022-11-09T01:25:03.196Z,13.03
2022-11-09T01:27:30.562Z,12.90
2022-11-09T01:29:58.323Z,13.00
2022-11-09T01:32:25.639Z,13.01
2022-11-09T01:34:52.969Z,12.98
2022-11-09T01:37:20.535Z,13.06
2022-11-09T01:39:47.855Z,13.08
2022-11-09T01:42:15.677Z,13.01
2022-11-09T01:44:43.244Z,13.14
2022-11-09T01:47:16.883Z,13.08
2022-11-09T01:49:51.874Z,12.97
2022-11-09T01:52:31.857Z,12.97
2022-11-09T01:55:07.883Z,12.82
2022-11-09T01:57:39.928Z,12.67
2022-11-09T02:00:08.641Z,12.87
2022-11-09T02:02:45.326Z,12.79
2022-11-09T02:05:16.009Z,12.93
2022-11-09T02:07:45.142Z,12.98
2022-11-09T02:10:32.811Z,13.10
2022-11-09T02:13:02.410Z,12.65
2022-11-09T02:15:39.155Z,12.67
2022-11-09T02:18:11.336Z,12.63
2022-11-09T02:21:05.695Z,12.75
2022-11-09T02:23:32.986Z,12.70
2022-11-09T02:26:05.519Z,12.77
2022-11-09T02:28:34.379Z,12.75
2022-11-09T02:31:02.543Z,12.56
2022-11-09T02:33:29.903Z,12.60
2022-11-09T02:35:57.336Z,12.73
2022-11-09T02:38:25.004Z,12.49
2022-11-09T02:40:52.928Z,12.51
2022-11-09T02:43:20.682Z,12.64
2022-11-09T02:45:48.631Z,12.77
2022-11-09T02:48:16.673Z,12.62
2022-11-09T02:50:44.088Z,12.58
2022-11-09T02:53:11.714Z,12.62
2022-11-09T02:55:39.399Z,12.42
2022-11-09T02:58:07.165Z,12.46
2022-11-09T03:00:35.386Z,12.28
2022-11-09T03:03:03.781Z,12.45
2022-11-09T03:05:31.174Z,12.33
2022-11-09T03:08:02.303Z,12.41
2022-11-09T03:10:30.238Z,12.45
2022-11-09T03:12:57.694Z,12.38
2022-11-09T03:15:25.352Z,12.29
2022-11-09T03:17:52.789Z,12.49
2022-11-09T03:20:20.561Z,12.37
2022-11-09T03:22:48.902Z,12.38
2022-11-09T03:25:16.416Z,12.29
2022-11-09T03:27:43.820Z,12.36
2022-11-09T03:30:12.395Z,12.25
2022-11-09T03:32:40.293Z,12.15
2022-11-09T03:35:08.112Z,12.33
2022-11-09T03:37:36.275Z,12.40
2022-11-09T03:40:04.179Z,12.51
2022-11-09T03:42:31.483Z,12.65
2022-11-09T03:44:59.156Z,12.66
2022-11-09T03:47:26.469Z,12.73
2022-11-09T03:49:53.766Z,12.56
2022-11-09T03:52:21.535Z,12.66
2022-11-09T03:54:48.846Z,12.37
2022-11-09T03:57:16.154Z,12.38
2022-11-09T03:59:43.715Z,12.35
2022-11-09T04:02:11.116Z,12.38
2022-11-09T04:04:38.780Z,12.61
2022-11-09T04:07:06.155Z,12.36
2022-11-09T04:09:33.474Z,12.45
2022-11-09T04:12:01.034Z,12.53
2022-11-09T04:14:28.403Z,12.43
2022-11-09T04:16:55.971Z,12.44
2022-11-09T04:19:23.801Z,12.53
2022-11-09T04:21:51.660Z,12.45
2022-11-09T04:24:18.949Z,12.33
2022-11-09T04:26:49.294Z,12.18
2022-11-09T04:29:16.578Z,12.36
2022-11-09T04:31:43.959Z,12.38
2022-11-09T04:34:11.526Z,12.30
2022-11-09T04:36:38.822Z,12.31
2022-11-09T04:39:06.143Z,12.32
2022-11-09T04:41:33.719Z,12.33
2022-11-09T04:44:01.002Z,12.34
2022-11-09T04:46:28.287Z,12.30
2022-11-09T04:48:55.875Z,12.46
2022-11-09T04:51:23.216Z,12.20
2022-11-09T04:53:50.612Z,12.40
2022-11-09T04:56:18.203Z,12.51
2022-11-09T04:58:45.720Z,12.31
2022-11-09T05:01:13.955Z,12.29
2022-11-09T05:03:42.014Z,12.21
2022-11-09T05:06:28.459Z,12.28
2022-11-09T05:08:56.332Z,12.23
2022-11-09T05:11:24.132Z,12.31
2022-11-09T05:13:51.700Z,12.22
2022-11-09T05:16:20.151Z,12.30
2022-11-09T05:18:47.479Z,12.30
2022-11-09T05:21:14.799Z,12.15
2022-11-09T05:24:01.214Z,12.01
2022-11-09T05:26:39.980Z,12.08
2022-11-09T05:29:09.893Z,11.92
2022-11-09T05:31:38.259Z,11.87
2022-11-09T05:34:06.938Z,12.04
2022-11-09T05:36:34.495Z,12.08
2022-11-09T05:39:01.864Z,12.00
2022-11-09T05:41:29.358Z,11.91
2022-11-09T05:43:56.977Z,12.01
2022-11-09T05:46:25.153Z,12.16
2022-11-09T05:48:52.470Z,12.07
2022-11-09T05:51:20.010Z,12.13
2022-11-09T05:53:47.420Z,12.02
2022-11-09T05:56:15.299Z,11.91
2022-11-09T05:58:43.217Z,11.98
2022-11-09T06:01:15.988Z,12.17
2022-11-09T06:03:44.249Z,12.04
2022-11-09T06:06:15.829Z,12.06
2022-11-09T06:08:43.186Z,11.96
2022-11-09T06:11:13.069Z,12.12
2022-11-09T06:13:42.019Z,11.94
2022-11-09T06:16:09.697Z,11.79
2022-11-09T06:18:37.391Z,12.05
2022-11-09T06:21:05.982Z,12.05
2022-11-09T06:23:34.291Z,12.11
2022-11-09T06:26:06.292Z,12.05
2022-11-09T06:28:34.642Z,12.09
2022-11-09T06:31:04.132Z,12.21
2022-11-09T06:33:32.419Z,11.98
2022-11-09T06:35:59.839Z,11.91
2022-11-09T06:38:27.554Z,11.97
2022-11-09T06:40:56.264Z,12.00
2022-11-09T06:43:24.148Z,12.07
2022-11-09T06:45:51.809Z,11.90
2022-11-09T06:48:19.353Z,11.87
2022-11-09T06:50:46.856Z,11.90
2022-11-09T06:53:15.742Z,11.94
2022-11-09T06:55:47.380Z,11.87
2022-11-09T06:58:19.430Z,11.84
2022-11-09T07:00:47.072Z,11.56
2022-11-09T07:03:15.777Z,11.69
2022-11-09T07:05:43.485Z,11.91
2022-11-09T07:08:11.525Z,11.79
2022-11-09T07:10:39.059Z,11.83
2022-11-09T07:13:07.309Z,11.96
2022-11-09T07:15:35.424Z,11.74
2022-11-09T07:18:05.181Z,11.84
2022-11-09T07:20:33.091Z,11.66
2022-11-09T07:23:00.410Z,11.74
2022-11-09T07:25:27.746Z,11.72
2022-11-09T07:27:55.422Z,11.63
2022-11-09T07:30:22.727Z,11.82
2022-11-09T07:35:38.564Z,11.71
2022-11-09T07:38:06.180Z,11.57
2022-11-09T07:40:34.017Z,11.68
2022-11-09T07:43:02.451Z,11.66
2022-11-09T07:45:30.767Z,11.75
2022-11-09T07:48:00.733Z,11.88
2022-11-09T07:50:29.452Z,12.16
2022-11-09T07:52:57.643Z,11.99
2022-11-09T07:55:25.851Z,11.94
2022-11-09T07:57:57.689Z,11.91
2022-11-09T08:00:26.076Z,11.90
2022-11-09T08:02:53.698Z,12.08
2022-11-09T08:05:21.055Z,12.14
2022-11-09T08:07:48.359Z,11.89
2022-11-09T08:10:16.309Z,11.99
2022-11-09T08:12:43.657Z,11.96
2022-11-09T08:15:11.325Z,12.06
2022-11-09T08:17:38.892Z,12.13
2022-11-09T08:20:06.706Z,11.95
2022-11-09T08:22:41.144Z,11.92
2022-11-09T08:25:09.114Z,12.12
2022-11-09T08:27:40.294Z,12.13
2022-11-09T08:30:12.896Z,12.18
2022-11-09T08:32:41.587Z,11.81
2022-11-09T08:35:14.314Z,11.81
2022-11-09T08:37:41.895Z,11.91
2022-11-09T08:40:09.888Z,12.04
2022-11-09T08:42:37.192Z,12.21
2022-11-09T08:45:05.734Z,12.19
2022-11-09T08:47:33.126Z,12.40
2022-11-09T08:50:01.237Z,12.47
2022-11-09T08:52:28.795Z,12.57
2022-11-09T08:54:56.202Z,12.39
2022-11-09T08:57:23.567Z,12.35
2022-11-09T08:59:51.139Z,12.37
2022-11-09T09:02:18.623Z,12.23
2022-11-09T09:04:45.971Z,12.11
2022-11-09T09:07:13.664Z,12.39
2022-11-09T09:09:41.053Z,12.43
2022-11-09T09:12:09.485Z,12.58
2022-11-09T09:14:37.183Z,12.49
2022-11-09T09:17:04.582Z,12.37
2022-11-09T09:19:32.016Z,12.51
2022-11-09T09:22:01.279Z,12.46
2022-11-09T09:24:28.792Z,12.27
2022-11-09T09:26:56.096Z,12.49
2022-11-09T09:29:23.691Z,12.47
2022-11-09T09:31:51.079Z,12.52
2022-11-09T09:34:18.482Z,12.59
2022-11-09T09:36:48.207Z,12.47
2022-11-09T09:39:15.952Z,12.28
2022-11-09T09:41:51.522Z,12.44
2022-11-09T09:44:29.102Z,12.67
2022-11-09T09:47:07.816Z,12.69
2022-11-09T09:49:38.396Z,12.69
2022-11-09T09:52:26.023Z,12.60
2022-11-09T09:55:08.333Z,12.65
2022-11-09T09:57:41.655Z,12.51
2022-11-09T10:00:19.179Z,12.59
2022-11-09T10:02:46.866Z,12.67
2022-11-09T10:05:16.296Z,12.78
2022-11-09T10:08:09.321Z,12.91
2022-11-09T10:10:39.854Z,12.87
2022-11-09T10:13:26.856Z,12.87
2022-11-09T10:16:15.289Z,12.67
2022-11-09T10:19:00.953Z,12.73
2022-11-09T10:22:08.165Z,12.84
2022-11-09T10:25:16.826Z,12.70
2022-11-09T10:27:43.583Z,12.73
2022-11-09T10:30:16.409Z,12.98
2022-11-09T10:32:47.045Z,12.87
2022-11-09T10:35:19.745Z,12.85
2022-11-09T10:37:50.136Z,13.02
2022-11-09T10:40:22.811Z,13.11
2022-11-09T10:43:13.825Z,13.16
2022-11-09T10:46:08.082Z,13.21
2022-11-09T10:48:55.606Z,13.14
2022-11-09T10:51:43.480Z,13.02
2022-11-09T10:54:34.670Z,13.03
2022-11-09T10:57:24.603Z,13.10
2022-11-09T11:00:19.202Z,13.09
2022-11-09T11:03:33.101Z,13.12
2022-11-09T11:06:27.157Z,13.14
2022-11-09T11:09:19.079Z,13.26
2022-11-09T11:12:15.414Z,13.20
2022-11-09T11:15:01.209Z,13.23
2022-11-09T11:17:46.986Z,13.30
2022-11-09T11:20:35.339Z,13.23
2022-11-09T11:23:23.595Z,13.20
2022-11-09T11:26:30.465Z,13.18
2022-11-09T11:29:19.237Z,13.28
2022-11-09T11:32:10.014Z,13.15
2022-11-09T11:35:00.704Z,13.21
2022-11-09T11:38:07.276Z,13.46
2022-11-09T11:41:05.223Z,13.58
2022-11-09T11:44:02.760Z,13.51
2022-11-09T11:47:01.030Z,13.45
2022-11-09T11:50:23.872Z,13.45
2022-11-09T11:53:48.219Z,13.46
2022-11-09T11:57:07.414Z,13.48
2022-11-09T12:00:01.929Z,13.41
2022-11-09T12:03:03.056Z,13.65
2022-11-09T12:05:54.778Z,13.53
2022-11-09T12:08:59.514Z,13.49
2022-11-09T12:12:06.895Z,13.54
2022-11-09T12:14:58.481Z,13.52
2022-11-09T12:17:52.323Z,13.67
2022-11-09T12:20:59.891Z,13.53
2022-11-09T12:24:00.391Z,13.46
2022-11-09T12:27:17.840Z,13.46
2022-11-09T12:30:14.051Z,13.44
2022-11-09T12:33:07.030Z,13.48
2022-11-09T12:36:12.599Z,13.52
2022-11-09T12:38:58.480Z,13.56
2022-11-09T12:41:45.337Z,13.60
2022-11-09T12:44:40.137Z,13.80
2022-11-09T12:47:34.551Z,13.71
2022-11-09T12:50:21.972Z,13.72
2022-11-09T12:53:08.315Z,13.85
2022-11-09T12:56:00.126Z,13.73
2022-11-09T12:58:46.198Z,13.70
2022-11-09T13:01:35.102Z,13.74
2022-11-09T13:04:22.545Z,13.52
2022-11-09T13:07:16.637Z,13.50
2022-11-09T13:10:03.404Z,13.57
2022-11-09T13:12:49.507Z,13.48
2022-11-09T13:15:35.456Z,13.59
2022-11-09T13:18:47.535Z,13.47
2022-11-09T13:21:35.414Z,13.53
2022-11-09T13:24:30.608Z,13.48
2022-11-09T13:27:47.128Z,13.54
2022-11-09T13:30:35.468Z,13.52
2022-11-09T13:33:31.721Z,13.43
2022-11-09T13:36:19.290Z,13.38
2022-11-09T13:39:28.641Z,13.45
2022-11-09T13:42:35.822Z,13.64
2022-11-09T13:45:32.364Z,13.50
2022-11-09T13:48:33.347Z,13.67
2022-11-09T13:51:32.926Z,13.57
2022-11-09T13:54:35.481Z,13.55
2022-11-09T13:57:22.920Z,13.49
2022-11-09T14:00:23.417Z,13.38
2022-11-09T14:03:24.870Z,13.47
2022-11-09T14:06:11.705Z,13.53
2022-11-09T14:08:58.043Z,13.50
2022-11-09T14:11:57.193Z,13.56
2022-11-09T14:14:55.569Z,13.24
2022-11-09T14:18:12.469Z,13.46
2022-11-09T14:21:17.715Z,13.48
2022-11-09T14:24:24.837Z,13.47
2022-11-09T14:27:10.581Z,13.62
2022-11-09T14:30:00.907Z,13.57
2022-11-09T14:32:51.498Z,13.68
2022-11-09T14:35:39.155Z,13.47
2022-11-09T14:38:25.332Z,13.56
2022-11-09T14:41:23.139Z,13.68
2022-11-09T14:44:16.288Z,13.73
2022-11-09T14:47:02.491Z,13.79
2022-11-09T14:49:48.930Z,13.71
2022-11-09T14:52:34.957Z,13.70
2022-11-09T14:55:22.830Z,13.45
2022-11-09T14:58:13.190Z,13.41
2022-11-09T15:01:16.522Z,13.57
2022-11-09T15:04:21.028Z,13.76
2022-11-09T15:07:08.116Z,13.57
2022-11-09T15:09:59.454Z,13.65
2022-11-09T15:12:54.965Z,13.52
2022-11-09T15:15:41.359Z,13.58
2022-11-09T15:18:34.332Z,13.62
2022-11-09T15:21:32.325Z,13.60
2022-11-09T15:24:19.257Z,13.54
2022-11-09T15:27:34.804Z,13.42
2022-11-09T15:30:48.580Z,13.40
2022-11-09T15:33:46.395Z,13.55
2022-11-09T15:36:35.658Z,13.46
2022-11-09T15:39:23.179Z,13.43
2022-11-09T15:42:12.878Z,13.61
2022-11-09T15:44:59.842Z,13.52
2022-11-09T15:47:54.521Z,13.60
2022-11-09T15:50:40.953Z,13.35
2022-11-09T15:53:27.854Z,13.35
2022-11-09T15:56:23.458Z,13.42
2022-11-09T15:59:19.775Z,13.45
2022-11-09T16:02:06.443Z,13.52
2022-11-09T16:04:52.394Z,13.52
2022-11-09T16:07:38.651Z,13.52
2022-11-09T16:10:27.762Z,13.57
2022-11-09T16:13:14.283Z,13.63
2022-11-09T16:16:05.058Z,13.59
2022-11-09T16:18:50.796Z,13.54
2022-11-09T16:21:36.501Z,13.67
2022-11-09T16:24:22.144Z,13.73
2022-11-09T16:27:16.945Z,13.62
2022-11-09T16:30:09.432Z,13.53
2022-11-09T16:32:55.606Z,13.60
2022-11-09T16:35:41.607Z,13.58
2022-11-09T16:38:31.426Z,13.61
2022-11-09T16:41:17.979Z,13.73
2022-11-09T16:44:04.069Z,13.61
2022-11-09T16:46:50.054Z,13.51
2022-11-09T16:49:35.776Z,13.50
2022-11-09T16:52:22.010Z,13.50
2022-11-09T16:55:09.373Z,13.70
2022-11-09T16:57:55.350Z,13.48
2022-11-09T17:01:09.721Z,13.64
2022-11-09T17:03:54.503Z,13.58
2022-11-09T17:06:40.329Z,13.73
2022-11-09T17:09:25.987Z,13.74
2022-11-09T17:12:11.890Z,13.54
2022-11-09T17:14:57.691Z,13.67
2022-11-09T17:17:43.711Z,13.67
2022-11-09T17:20:29.651Z,13.86
2022-11-09T17:23:18.775Z,13.74
2022-11-09T17:26:05.586Z,13.70
2022-11-09T17:28:51.427Z,13.78
2022-11-09T17:31:38.135Z,13.73
2022-11-09T17:34:24.091Z,13.83
2022-11-09T17:37:09.813Z,13.98
2022-11-09T17:39:55.582Z,13.86
2022-11-09T17:42:41.654Z,13.82
2022-11-09T17:45:27.480Z,13.88
2022-11-09T17:48:13.077Z,13.85
2022-11-09T17:50:59.276Z,13.84
2022-11-09T17:53:45.188Z,13.91
2022-11-09T17:56:32.059Z,13.90
2022-11-09T17:59:18.232Z,14.00
2022-11-09T18:02:03.670Z,13.99
2022-11-09T18:04:49.481Z,13.96
2022-11-09T18:07:35.222Z,13.94
2022-11-09T18:10:20.764Z,13.94
2022-11-09T18:13:06.646Z,13.95
2022-11-09T18:15:52.776Z,13.96
2022-11-09T18:18:38.722Z,14.11
2022-11-09T18:21:25.416Z,13.95
2022-11-09T18:24:11.346Z,14.03
2022-11-09T18:26:57.251Z,13.98
2022-11-09T18:29:43.170Z,14.17
2022-11-09T18:32:28.895Z,13.94
2022-11-09T18:35:14.814Z,13.94
2022-11-09T18:38:00.631Z,13.84
2022-11-09T18:40:56.879Z,13.63
2022-11-09T18:43:42.629Z,13.54
2022-11-09T18:46:30.765Z,13.78
2022-11-09T18:49:17.907Z,13.75
2022-11-09T18:52:03.950Z,13.83
2022-11-09T18:54:49.897Z,13.83
2022-11-09T18:57:35.674Z,13.82
2022-11-09T19:00:21.530Z,13.82
2022-11-09T19:03:11.574Z,13.78
2022-11-09T19:05:57.511Z,13.76
2022-11-09T19:09:02.354Z,13.91
2022-11-09T19:11:48.327Z,13.90
2022-11-09T19:14:40.907Z,13.77
2022-11-09T19:17:27.110Z,14.00
2022-11-09T19:20:12.840Z,13.89
2022-11-09T19:22:58.508Z,13.85
2022-11-09T19:25:44.609Z,13.99
2022-11-09T19:28:30.331Z,14.10
2022-11-09T19:31:17.774Z,14.19
2022-11-09T19:34:04.231Z,14.18
2022-11-09T19:36:50.198Z,14.19
2022-11-09T19:39:39.148Z,14.06
2022-11-09T19:42:27.960Z,14.11
2022-11-09T19:45:13.793Z,14.19
2022-11-09T19:48:01.107Z,14.15
2022-11-09T19:50:51.800Z,14.10
2022-11-09T19:53:42.188Z,14.15
2022-11-09T19:56:30.883Z,14.21
2022-11-09T19:59:17.079Z,14.21
2022-11-09T20:02:03.095Z,14.04
2022-11-09T20:04:50.695Z,14.07
2022-11-09T20:07:36.453Z,14.14
2022-11-09T20:10:22.256Z,14.18
2022-11-09T20:13:08.041Z,14.26
2022-11-09T20:15:53.954Z,14.21
2022-11-09T20:18:40.039Z,14.23
2022-11-09T20:21:26.093Z,14.23
2022-11-09T20:24:12.376Z,14.31
2022-11-09T20:26:58.292Z,14.33
2022-11-09T20:29:43.979Z,14.30
2022-11-09T20:32:29.662Z,14.38
2022-11-09T20:35:15.698Z,14.32
2022-11-09T20:38:01.692Z,14.25
2022-11-09T20:40:58.022Z,14.27
2022-11-09T20:43:43.627Z,14.41
2022-11-09T20:46:34.501Z,14.46
2022-11-09T20:49:22.449Z,14.33
2022-11-09T20:52:08.158Z,14.36
2022-11-09T20:54:54.123Z,14.30
2022-11-09T20:57:40.178Z,14.35
2022-11-09T21:00:25.933Z,14.44
2022-11-09T21:03:11.623Z,14.41
2022-11-09T21:05:59.508Z,14.45
2022-11-09T21:08:46.755Z,14.45
2022-11-09T21:11:35.024Z,14.39
2022-11-09T21:14:20.718Z,14.37
2022-11-09T21:17:06.429Z,14.52
2022-11-09T21:19:52.293Z,14.53
2022-11-09T21:22:56.552Z,14.45
2022-11-09T21:26:02.516Z,14.39
2022-11-09T21:29:06.817Z,14.38
2022-11-09T21:31:52.694Z,14.36
2022-11-09T21:34:39.129Z,14.40
2022-11-09T21:37:25.079Z,14.55
2022-11-09T21:40:11.078Z,14.44
2022-11-09T21:42:57.063Z,14.45
2022-11-09T21:45:42.650Z,14.43
2022-11-09T21:48:28.414Z,14.42
2022-11-09T21:51:14.326Z,14.31
2022-11-09T21:54:00.212Z,14.36
2022-11-09T21:56:49.733Z,14.43
2022-11-09T21:59:35.596Z,14.37
2022-11-09T22:02:21.181Z,14.38
2022-11-09T22:05:07.422Z,14.42
2022-11-09T22:07:53.520Z,14.35
2022-11-09T22:10:39.225Z,14.40
2022-11-09T22:13:43.409Z,14.35
2022-11-09T22:16:33.698Z,14.44
2022-11-09T22:19:38.110Z,14.45
2022-11-09T22:22:24.406Z,14.40
2022-11-09T22:25:10.095Z,14.44
2022-11-09T22:27:55.966Z,14.39
2022-11-09T22:30:41.703Z,14.37
2022-11-09T22:33:29.397Z,14.47
2022-11-09T22:36:16.398Z,14.39
2022-11-09T22:39:02.414Z,14.37
2022-11-09T22:41:48.291Z,14.37
2022-11-09T22:44:33.962Z,14.49
2022-11-09T22:47:19.983Z,14.40
2022-11-09T22:50:06.456Z,14.34
2022-11-09T22:52:59.515Z,14.38
2022-11-09T22:55:55.998Z,14.33
2022-11-09T22:58:41.740Z,14.46
2022-11-09T23:01:27.382Z,14.41
2022-11-09T23:04:13.663Z,14.37
2022-11-09T23:06:59.414Z,14.36
2022-11-09T23:09:45.157Z,14.32
2022-11-09T23:12:33.158Z,14.27
2022-11-09T23:15:18.763Z,14.40
2022-11-09T23:18:22.731Z,14.32
2022-11-09T23:21:09.009Z,14.23
2022-11-09T23:23:57.103Z,14.24
2022-11-09T23:26:42.872Z,14.27
2022-11-09T23:29:28.785Z,14.33
2022-11-09T23:32:14.400Z,14.28
2022-11-09T23:35:00.136Z,14.41
2022-11-09T23:37:45.806Z,14.38
2022-11-09T23:40:33.741Z,14.36
2022-11-09T23:43:20.349Z,14.30
2022-11-09T23:46:09.961Z,14.33
2022-11-09T23:48:55.837Z,14.54
2022-11-09T23:51:41.797Z,14.42
2022-11-09T23:54:27.705Z,14.38
2022-11-09T23:57:13.714Z,14.34
2022-11-09T23:59:59.758Z,14.29
